Time;durP1;ratioP1;P1;durP2;ratioP2;P2;SDS_P1;SDS_P2;PMS_P1;PMS_P2;Temp;Humidity;BMP_temperature;BMP_pressure;BME280_temperature;BME280_humidity;BME280_pressure;Samples;Min_cycle;Max_cycle;Signal;HPM_P1;HPM_P2
2023/12/30 00:02:36;;;;;;;;;;;;;;;5.01;73.97;100567.72;5461207;32;34238;-70
2023/12/30 00:05:38;;;;;;;;;;;;;;;5.15;73.97;100565.78;5451772;32;34736;-73
2023/12/30 00:08:40;;;;;;;;;;;;;;;4.92;73.51;100555.69;5461325;32;34774;-70
2023/12/30 00:11:43;;;;;;;;;;;;;;;5.39;70.88;100559.34;5466136;32;34920;-72
2023/12/30 00:14:45;;;;;;;;;;;;;;;4.45;75.02;100551.06;5440689;32;34769;-72
2023/12/30 00:17:47;;;;;;;;;;;;;;;4.28;75.74;100562.50;5445306;32;35341;-72
2023/12/30 00:20:50;;;;;;;;;;;;;;;4.87;74.72;100568.75;5466354;32;35047;-69
2023/12/30 00:23:52;;;;;;;;;;;;;;;4.75;75.56;100561.09;5463105;32;34963;-70
2023/12/30 00:26:54;;;;;;;;;;;;;;;4.89;73.65;100564.41;5446539;32;34813;-70
2023/12/30 00:29:56;;;;;;;;;;;;;;;4.48;74.92;100572.69;5439834;32;35010;-69
2023/12/30 00:32:59;;;;;;;;;;;;;;;5.06;73.42;100568.50;5463863;32;34245;-72
2023/12/30 00:36:02;;;;;;;;;;;;;;;4.78;74.00;100579.31;5461710;32;34804;-71
2023/12/30 00:39:05;;;;;;;;;;;;;;;4.51;74.92;100577.88;5464389;32;34962;-71
2023/12/30 00:42:07;;;;;;;;;;;;;;;4.26;76.49;100579.87;5466360;32;35354;-69
2023/12/30 00:45:09;;;;;;;;;;;;;;;4.52;75.67;100569.19;5461824;32;35028;-69
2023/12/30 00:48:11;;;;;;;;;;;;;;;4.25;76.80;100575.56;5450804;32;35113;-71
2023/12/30 00:51:14;;;;;;;;;;;;;;;4.78;74.85;100563.69;5459426;32;34564;-71
2023/12/30 00:54:16;;;;;;;;;;;;;;;4.76;75.17;100565.41;5445729;32;34617;-69
2023/12/30 00:57:18;;;;;;;;;;;;;;;4.38;75.72;100565.00;5464938;32;34896;-72
2023/12/30 01:00:20;;;;;;;;;;;;;;;4.51;74.57;100566.63;5461361;32;35578;-71
2023/12/30 01:03:22;;;;;;;;;;;;;;;4.60;74.60;100569.09;5463377;32;35498;-70
2023/12/30 01:06:24;;;;;;;;;;;;;;;4.74;72.53;100563.72;5460911;32;34762;-72
2023/12/30 01:09:26;;;;;;;;;;;;;;;4.24;75.03;100571.22;5466010;32;35338;-71
2023/12/30 01:12:29;;;;;;;;;;;;;;;4.71;73.50;100564.62;5461272;32;35416;-71
2023/12/30 01:15:31;;;;;;;;;;;;;;;3.64;77.49;100572.66;5464176;32;34850;-72
2023/12/30 01:18:33;;;;;;;;;;;;;;;4.07;76.35;100573.16;5462836;32;34832;-69
2023/12/30 01:21:36;;;;;;;;;;;;;;;3.99;76.85;100573.22;5434910;32;34341;-71
2023/12/30 01:24:38;;;;;;;;;;;;;;;4.58;74.69;100574.34;5465919;32;34484;-72
2023/12/30 01:27:40;;;;;;;;;;;;;;;3.76;78.11;100583.81;5460315;32;34603;-70
2023/12/30 01:30:42;;;;;;;;;;;;;;;3.93;77.57;100588.00;5465556;32;35063;-72
2023/12/30 01:33:45;;;;;;;;;;;;;;;3.96;77.76;100581.03;5440744;32;34482;-69
2023/12/30 01:36:47;;;;;;;;;;;;;;;4.70;76.57;100575.94;5463407;32;34279;-70
2023/12/30 01:39:49;;;;;;;;;;;;;;;5.15;73.82;100570.97;5463786;32;35483;-69
2023/12/30 01:42:51;;;;;;;;;;;;;;;5.39;73.63;100570.62;5441675;32;34685;-71
2023/12/30 01:45:58;;;;;;;;;;;;;;;5.77;71.71;100565.72;5465512;32;34740;-69
2023/12/30 01:49:00;;;;;;;;;;;;;;;5.20;74.14;100558.75;5443032;32;35264;-70
2023/12/30 01:52:03;;;;;;;;;;;;;;;5.15;75.16;100560.56;5451852;32;35016;-72
2023/12/30 01:55:05;;;;;;;;;;;;;;;5.04;74.73;100546.84;5446112;32;34822;-71
2023/12/30 01:58:07;;;;;;;;;;;;;;;4.88;74.28;100551.38;5462731;32;35786;-70
2023/12/30 02:01:09;;;;;;;;;;;;;;;5.71;70.04;100545.81;5448576;32;34918;-69
2023/12/30 02:04:12;;;;;;;;;;;;;;;5.16;72.81;100559.69;5460504;32;34730;-71
2023/12/30 02:07:14;;;;;;;;;;;;;;;4.19;75.54;100551.34;5465093;32;34506;-70
2023/12/30 02:10:16;;;;;;;;;;;;;;;4.86;73.05;100554.00;5460711;32;34911;-72
2023/12/30 02:13:18;;;;;;;;;;;;;;;4.00;76.18;100551.53;5464461;32;34998;-72
2023/12/30 02:16:20;;;;;;;;;;;;;;;4.33;73.79;100550.31;5445309;32;34863;-68
2023/12/30 02:19:23;;;;;;;;;;;;;;;4.20;76.49;100553.94;5461950;32;34444;-70
2023/12/30 02:22:25;;;;;;;;;;;;;;;4.15;75.75;100542.72;5463141;32;35123;-71
2023/12/30 02:25:28;;;;;;;;;;;;;;;3.58;79.52;100541.50;5460196;32;35815;-73
2023/12/30 02:28:30;;;;;;;;;;;;;;;3.88;77.60;100554.25;5464449;32;34248;-72
2023/12/30 02:31:32;;;;;;;;;;;;;;;5.00;73.04;100545.16;5408820;32;850275;-69
2023/12/30 02:34:34;;;;;;;;;;;;;;;4.08;74.45;100541.91;5464494;32;35721;-69
2023/12/30 02:37:37;;;;;;;;;;;;;;;4.29;77.75;100548.63;5465284;32;34918;-69
2023/12/30 02:40:39;;;;;;;;;;;;;;;3.75;79.48;100527.50;5465423;32;34194;-68
2023/12/30 02:44:10;;;;;;;;;;;;;;;4.04;77.21;100548.00;5466290;32;34670;-70
2023/12/30 02:47:12;;;;;;;;;;;;;;;4.63;77.46;100543.00;5454753;32;35309;-69
2023/12/30 02:50:15;;;;;;;;;;;;;;;4.45;77.62;100536.31;5445643;32;35297;-72
2023/12/30 02:53:17;;;;;;;;;;;;;;;4.62;75.41;100543.91;5444576;32;35018;-72
2023/12/30 02:56:20;;;;;;;;;;;;;;;4.24;77.95;100547.81;5462906;32;34174;-73
2023/12/30 02:59:22;;;;;;;;;;;;;;;4.58;76.23;100550.03;5449598;32;35200;-70
2023/12/30 03:02:24;;;;;;;;;;;;;;;4.73;75.70;100552.44;5462190;32;34608;-71
2023/12/30 03:05:27;;;;;;;;;;;;;;;3.59;79.43;100538.03;5466266;32;35107;-69
2023/12/30 03:08:30;;;;;;;;;;;;;;;3.96;78.73;100543.78;5461930;32;35498;-69
2023/12/30 03:11:32;;;;;;;;;;;;;;;3.67;80.08;100544.00;5450267;32;35489;-72
2023/12/30 03:14:35;;;;;;;;;;;;;;;4.86;76.67;100534.94;5462552;32;34385;-70
2023/12/30 03:17:37;;;;;;;;;;;;;;;4.95;75.29;100533.94;5448984;32;34307;-69
2023/12/30 03:20:39;;;;;;;;;;;;;;;5.14;74.47;100535.37;5465190;32;35382;-71
2023/12/30 03:23:41;;;;;;;;;;;;;;;5.62;71.46;100531.19;5461456;32;34817;-71
2023/12/30 03:26:44;;;;;;;;;;;;;;;5.56;70.87;100536.50;5439627;32;36805;-70
2023/12/30 03:29:46;;;;;;;;;;;;;;;5.43;71.20;100533.22;5447395;32;34742;-72
2023/12/30 03:32:48;;;;;;;;;;;;;;;5.35;70.75;100526.41;5466433;32;35038;-71
2023/12/30 03:35:50;;;;;;;;;;;;;;;5.11;72.24;100532.84;5461565;32;34874;-70
2023/12/30 03:38:53;;;;;;;;;;;;;;;5.51;70.45;100524.41;5462402;32;34323;-70
2023/12/30 03:41:55;;;;;;;;;;;;;;;5.38;70.28;100527.22;5465155;32;34713;-71
2023/12/30 03:44:57;;;;;;;;;;;;;;;5.36;69.91;100522.91;5461887;32;34386;-73
2023/12/30 03:47:59;;;;;;;;;;;;;;;5.14;71.53;100525.81;5466060;32;35443;-73
2023/12/30 03:51:02;;;;;;;;;;;;;;;5.07;71.89;100524.19;5459493;32;34907;-70
2023/12/30 03:54:04;;;;;;;;;;;;;;;5.34;69.95;100535.94;5463383;32;35601;-71
2023/12/30 03:57:06;;;;;;;;;;;;;;;4.77;72.41;100538.53;5460821;32;35245;-69
2023/12/30 04:00:08;;;;;;;;;;;;;;;5.20;71.60;100526.62;5442352;32;35543;-72
2023/12/30 04:03:11;;;;;;;;;;;;;;;5.32;70.10;100529.06;5464995;32;35432;-69
2023/12/30 04:06:18;;;;;;;;;;;;;;;5.13;70.07;100513.69;5461370;32;34917;-69
2023/12/30 04:09:20;;;;;;;;;;;;;;;5.25;69.92;100525.69;5465899;32;35156;-69
2023/12/30 04:12:22;;;;;;;;;;;;;;;5.00;69.37;100529.53;5461312;32;35078;-73
2023/12/30 04:15:25;;;;;;;;;;;;;;;4.35;73.57;100530.34;5433303;32;35487;-72
2023/12/30 04:18:27;;;;;;;;;;;;;;;5.02;70.91;100532.97;5461991;32;34282;-69
2023/12/30 04:21:29;;;;;;;;;;;;;;;4.87;71.25;100542.72;5461039;32;34501;-73
2023/12/30 04:24:31;;;;;;;;;;;;;;;4.19;73.94;100541.81;5465817;32;34737;-72
2023/12/30 04:27:33;;;;;;;;;;;;;;;4.99;70.38;100539.09;5460868;32;35398;-70
2023/12/30 04:30:35;;;;;;;;;;;;;;;3.82;75.27;100548.25;5465682;32;34868;-70
2023/12/30 04:33:38;;;;;;;;;;;;;;;4.48;75.22;100535.41;5460754;32;34805;-72
2023/12/30 04:36:40;;;;;;;;;;;;;;;4.47;74.76;100542.34;5465965;32;35519;-69
2023/12/30 04:39:42;;;;;;;;;;;;;;;5.01;71.57;100534.69;5446434;32;35464;-70
2023/12/30 04:42:44;;;;;;;;;;;;;;;4.74;72.58;100551.56;5461282;32;34998;-72
2023/12/30 04:45:46;;;;;;;;;;;;;;;4.57;73.32;100527.47;5466172;32;35700;-70
2023/12/30 04:48:54;;;;;;;;;;;;;;;4.61;71.13;100542.19;5461204;32;35763;-69
2023/12/30 04:51:56;;;;;;;;;;;;;;;4.08;75.35;100538.44;5454493;32;35022;-71
2023/12/30 04:54:58;;;;;;;;;;;;;;;3.49;77.59;100551.09;5444648;32;35009;-71
2023/12/30 04:58:00;;;;;;;;;;;;;;;3.72;77.38;100543.09;5451018;32;35187;-72
2023/12/30 05:01:03;;;;;;;;;;;;;;;4.14;75.51;100534.94;5461594;32;34833;-70
2023/12/30 05:04:05;;;;;;;;;;;;;;;5.05;71.66;100536.41;5461212;32;34629;-69
2023/12/30 05:07:07;;;;;;;;;;;;;;;4.46;72.93;100564.06;5464941;32;35568;-72
2023/12/30 05:10:10;;;;;;;;;;;;;;;3.75;76.39;100548.28;5461168;32;34287;-69
2023/12/30 05:13:12;;;;;;;;;;;;;;;4.89;72.13;100553.09;5465495;32;34840;-70
2023/12/30 05:16:14;;;;;;;;;;;;;;;4.75;72.18;100561.09;5445624;32;34368;-68
2023/12/30 05:19:17;;;;;;;;;;;;;;;4.94;72.60;100558.25;5464902;32;34407;-71
2023/12/30 05:22:19;;;;;;;;;;;;;;;4.53;72.82;100575.25;5462029;32;34376;-70
2023/12/30 05:25:21;;;;;;;;;;;;;;;4.19;73.77;100574.78;5461007;32;35176;-71
2023/12/30 05:28:23;;;;;;;;;;;;;;;5.27;71.29;100560.38;5463126;32;35465;-68
2023/12/30 05:31:26;;;;;;;;;;;;;;;5.13;70.95;100570.16;5460490;32;35435;-69
2023/12/30 05:34:28;;;;;;;;;;;;;;;5.21;71.47;100560.47;5465572;32;33947;-69
2023/12/30 05:37:30;;;;;;;;;;;;;;;4.84;71.38;100576.63;5463925;32;34926;-71
2023/12/30 05:40:33;;;;;;;;;;;;;;;4.59;72.64;100573.44;5444478;32;34219;-70
2023/12/30 05:43:35;;;;;;;;;;;;;;;4.64;71.68;100576.00;5441931;32;35519;-72
2023/12/30 05:46:37;;;;;;;;;;;;;;;4.89;71.30;100572.22;5441547;32;35283;-69
2023/12/30 05:49:40;;;;;;;;;;;;;;;4.77;71.84;100574.97;5465231;32;34694;-69
2023/12/30 05:52:42;;;;;;;;;;;;;;;4.94;70.47;100577.34;5457275;32;34979;-72
2023/12/30 05:55:45;;;;;;;;;;;;;;;5.03;69.99;100586.81;5449165;32;34178;-70
2023/12/30 05:58:47;;;;;;;;;;;;;;;4.07;72.63;100591.34;5460480;32;34596;-72
2023/12/30 06:01:49;;;;;;;;;;;;;;;3.25;76.57;100604.09;5463022;32;34347;-72
2023/12/30 06:04:51;;;;;;;;;;;;;;;3.91;74.84;100610.56;5462864;32;35067;-71
2023/12/30 06:07:54;;;;;;;;;;;;;;;3.70;73.26;100611.59;5459978;32;35099;-70
2023/12/30 06:10:56;;;;;;;;;;;;;;;3.16;76.97;100627.53;5465116;32;35509;-69
2023/12/30 06:13:58;;;;;;;;;;;;;;;3.55;75.94;100607.38;5461488;32;35535;-69
2023/12/30 06:17:00;;;;;;;;;;;;;;;3.70;74.29;100619.41;5467305;32;35864;-69
2023/12/30 06:20:04;;;;;;;;;;;;;;;4.08;72.54;100617.34;5448149;32;34654;-70
2023/12/30 06:23:06;;;;;;;;;;;;;;;4.22;73.15;100606.81;5452428;32;34960;-71
2023/12/30 06:26:08;;;;;;;;;;;;;;;3.96;75.19;100619.19;5465471;32;34718;-70
2023/12/30 06:29:11;;;;;;;;;;;;;;;3.56;75.67;100635.09;5462608;32;34660;-69
2023/12/30 06:32:13;;;;;;;;;;;;;;;3.25;75.63;100645.66;5466843;32;34551;-70
2023/12/30 06:35:15;;;;;;;;;;;;;;;2.91;79.51;100657.06;5462827;32;36154;-72
2023/12/30 06:38:17;;;;;;;;;;;;;;;2.87;79.75;100652.75;5472157;32;34936;-70
2023/12/30 06:41:20;;;;;;;;;;;;;;;2.56;81.57;100641.56;5462160;32;35460;-70
2023/12/30 06:44:22;;;;;;;;;;;;;;;4.13;74.84;100630.31;5464223;32;35405;-72
2023/12/30 06:47:24;;;;;;;;;;;;;;;3.66;75.63;100638.47;5464755;32;34704;-72
2023/12/30 06:50:26;;;;;;;;;;;;;;;3.06;79.81;100646.59;5460688;32;34699;-72
2023/12/30 06:53:31;;;;;;;;;;;;;;;2.85;81.18;100651.91;5464729;32;34992;-72
2023/12/30 06:56:33;;;;;;;;;;;;;;;2.66;82.17;100661.47;5446086;32;35395;-73
2023/12/30 06:59:36;;;;;;;;;;;;;;;2.90;80.50;100673.50;5467052;32;35003;-72
2023/12/30 07:02:38;;;;;;;;;;;;;;;3.52;79.49;100668.00;5462047;32;34265;-70
2023/12/30 07:05:40;;;;;;;;;;;;;;;3.50;79.08;100679.31;5446988;32;34814;-72
2023/12/30 07:08:42;;;;;;;;;;;;;;;2.77;81.16;100677.00;5465903;32;34571;-73
2023/12/30 07:11:45;;;;;;;;;;;;;;;3.66;79.23;100682.66;5447363;32;34184;-69
2023/12/30 07:14:48;;;;;;;;;;;;;;;2.77;82.00;100700.34;5466823;32;34427;-71
2023/12/30 07:17:50;;;;;;;;;;;;;;;3.55;77.17;100697.47;5440499;32;35420;-69
2023/12/30 07:20:52;;;;;;;;;;;;;;;3.41;79.98;100705.31;5439384;32;35133;-72
2023/12/30 07:23:54;;;;;;;;;;;;;;;3.91;79.08;100691.16;5461610;32;34970;-71
2023/12/30 07:26:56;;;;;;;;;;;;;;;3.53;79.73;100698.31;5461889;32;34586;-72
2023/12/30 07:30:02;;;;;;;;;;;;;;;3.26;80.41;100701.06;5466463;32;34307;-70
2023/12/30 07:33:04;;;;;;;;;;;;;;;3.34;82.32;100708.81;5461300;32;34972;-72
2023/12/30 07:36:07;;;;;;;;;;;;;;;4.30;75.48;100697.78;5466320;32;34820;-70
2023/12/30 07:39:09;;;;;;;;;;;;;;;4.29;75.43;100701.28;5448888;32;35304;-70
2023/12/30 07:42:12;;;;;;;;;;;;;;;3.94;78.39;100714.56;5465863;32;34772;-69
2023/12/30 07:45:14;;;;;;;;;;;;;;;4.25;76.04;100713.47;5461690;32;34199;-70
2023/12/30 07:48:16;;;;;;;;;;;;;;;3.88;78.74;100714.59;5461360;32;34539;-69
2023/12/30 07:51:18;;;;;;;;;;;;;;;3.91;75.93;100707.63;5464321;32;34494;-72
2023/12/30 07:54:20;;;;;;;;;;;;;;;3.59;78.23;100719.97;5443216;32;34732;-73
2023/12/30 07:57:22;;;;;;;;;;;;;;;3.80;79.08;100730.25;5468975;32;34945;-71
2023/12/30 08:00:25;;;;;;;;;;;;;;;3.83;78.44;100726.75;5460918;32;34333;-69
2023/12/30 08:03:27;;;;;;;;;;;;;;;3.79;80.31;100737.16;5465782;32;34530;-72
2023/12/30 08:06:29;;;;;;;;;;;;;;;3.57;80.29;100732.97;5461745;32;35621;-73
2023/12/30 08:09:31;;;;;;;;;;;;;;;4.28;78.11;100733.38;5461326;32;35146;-72
2023/12/30 08:12:35;;;;;;;;;;;;;;;3.42;80.52;100738.25;5451667;32;35534;-68
2023/12/30 08:15:37;;;;;;;;;;;;;;;3.74;80.04;100744.16;5460835;32;34382;-68
2023/12/30 08:18:40;;;;;;;;;;;;;;;3.55;80.13;100739.94;5447939;32;34394;-70
2023/12/30 08:21:42;;;;;;;;;;;;;;;3.19;81.78;100744.38;5455403;32;34973;-72
2023/12/30 08:24:44;;;;;;;;;;;;;;;3.71;79.42;100743.28;5465729;32;35339;-69
2023/12/30 08:27:46;;;;;;;;;;;;;;;4.46;76.08;100735.84;5461844;32;34825;-70
2023/12/30 08:30:50;;;;;;;;;;;;;;;3.97;79.59;100735.34;5461900;32;34932;-72
2023/12/30 08:33:52;;;;;;;;;;;;;;;3.78;78.41;100745.84;5466750;32;34749;-70
2023/12/30 08:36:55;;;;;;;;;;;;;;;4.03;79.63;100746.56;5447462;32;34309;-72
2023/12/30 08:39:57;;;;;;;;;;;;;;;4.22;79.64;100751.66;5475751;32;35405;-70
2023/12/30 08:42:59;;;;;;;;;;;;;;;4.30;78.05;100745.50;5441369;32;34248;-69
2023/12/30 08:46:02;;;;;;;;;;;;;;;4.62;76.97;100746.97;5462612;32;35608;-73
2023/12/30 08:49:04;;;;;;;;;;;;;;;5.03;75.27;100743.13;5449470;32;35062;-71
2023/12/30 08:52:11;;;;;;;;;;;;;;;4.93;75.74;100751.87;5458342;32;34796;-73
2023/12/30 08:55:13;;;;;;;;;;;;;;;5.29;76.74;100751.50;5449918;32;34878;-71
2023/12/30 08:58:15;;;;;;;;;;;;;;;4.88;75.74;100763.22;5440410;32;35385;-72
2023/12/30 09:01:18;;;;;;;;;;;;;;;6.35;71.98;100760.50;5464629;32;35467;-72
2023/12/30 09:04:20;;;;;;;;;;;;;;;5.40;74.42;100773.06;5446051;32;34772;-74
2023/12/30 09:07:23;;;;;;;;;;;;;;;5.33;73.76;100768.81;5463467;32;34991;-72
2023/12/30 09:10:25;;;;;;;;;;;;;;;6.03;71.95;100758.38;5465102;32;34733;-70
2023/12/30 09:13:27;;;;;;;;;;;;;;;6.04;71.78;100758.34;5461531;32;34784;-70
2023/12/30 09:16:29;;;;;;;;;;;;;;;5.71;71.86;100757.91;5466015;32;33345;-70
2023/12/30 09:19:31;;;;;;;;;;;;;;;5.78;72.42;100761.28;5461678;32;34384;-70
2023/12/30 09:22:34;;;;;;;;;;;;;;;5.90;71.05;100753.31;5466061;32;35600;-70
2023/12/30 09:25:36;;;;;;;;;;;;;;;6.60;69.51;100753.13;5442070;32;35034;-69
2023/12/30 09:28:38;;;;;;;;;;;;;;;5.19;72.53;100754.22;5462081;32;35607;-69
2023/12/30 09:31:42;;;;;;;;;;;;;;;4.93;74.20;100750.16;5463111;32;35127;-72
2023/12/30 09:34:44;;;;;;;;;;;;;;;5.39;74.16;100763.53;5460716;32;34623;-72
2023/12/30 09:37:46;;;;;;;;;;;;;;;5.55;74.60;100755.53;5450510;32;35634;-72
2023/12/30 09:40:52;;;;;;;;;;;;;;;5.46;74.62;100747.81;5446273;32;35484;-71
2023/12/30 09:43:54;;;;;;;;;;;;;;;6.92;68.22;100734.28;5463029;32;34353;-75
2023/12/30 09:46:56;;;;;;;;;;;;;;;5.84;71.41;100737.72;5459603;32;34868;-71
2023/12/30 09:49:58;;;;;;;;;;;;;;;6.32;70.31;100750.97;5460712;32;34781;-70
2023/12/30 09:53:01;;;;;;;;;;;;;;;6.07;71.57;100750.50;5461764;32;35311;-70
2023/12/30 09:56:03;;;;;;;;;;;;;;;7.12;67.97;100745.22;5446354;32;34841;-70
2023/12/30 09:59:06;;;;;;;;;;;;;;;6.55;69.01;100752.34;5465197;32;34866;-71
2023/12/30 10:02:09;;;;;;;;;;;;;;;6.07;72.19;100747.03;5459300;32;34375;-70
2023/12/30 10:05:12;;;;;;;;;;;;;;;6.32;70.73;100747.50;5450844;32;35067;-73
2023/12/30 10:08:14;;;;;;;;;;;;;;;6.00;72.95;100755.84;5444886;32;34888;-72
2023/12/30 10:11:17;;;;;;;;;;;;;;;6.16;72.00;100752.09;5459111;32;35624;-71
2023/12/30 10:14:19;;;;;;;;;;;;;;;7.40;68.63;100735.06;5464137;32;34880;-73
2023/12/30 10:17:21;;;;;;;;;;;;;;;6.72;68.54;100742.47;5459537;32;34866;-71
2023/12/30 10:20:23;;;;;;;;;;;;;;;7.57;67.93;100730.34;5444650;32;35529;-72
2023/12/30 10:23:26;;;;;;;;;;;;;;;8.38;64.29;100710.19;5459897;32;34386;-70
2023/12/30 10:26:28;;;;;;;;;;;;;;;8.27;64.83;100725.28;5464826;32;35273;-69
2023/12/30 10:29:31;;;;;;;;;;;;;;;8.17;65.66;100710.66;5445837;32;34743;-73
2023/12/30 10:32:47;;;;;;;;;;;;;;;8.92;63.30;100703.53;5451681;32;34674;-70
2023/12/30 10:35:50;;;;;;;;;;;;;;;9.23;61.83;100696.56;5460162;32;34969;-72
2023/12/30 10:38:52;;;;;;;;;;;;;;;8.60;63.30;100701.78;5441901;32;34538;-70
2023/12/30 10:41:54;;;;;;;;;;;;;;;8.98;63.40;100700.75;5447950;32;34975;-71
2023/12/30 10:44:56;;;;;;;;;;;;;;;9.55;61.51;100696.50;5460356;32;34655;-70
2023/12/30 10:47:59;;;;;;;;;;;;;;;9.50;61.53;100696.66;5462499;32;35128;-73
2023/12/30 10:51:02;;;;;;;;;;;;;;;9.16;62.27;100689.75;5460878;32;34678;-73
2023/12/30 10:54:05;;;;;;;;;;;;;;;10.19;60.32;100684.84;5457202;32;34518;-71
2023/12/30 10:57:08;;;;;;;;;;;;;;;10.53;59.56;100676.72;5448640;32;35132;-73
2023/12/30 11:00:10;;;;;;;;;;;;;;;10.96;58.53;100687.53;5447219;32;34872;-70
2023/12/30 11:03:13;;;;;;;;;;;;;;;11.31;57.36;100687.06;5451552;32;34427;-70
2023/12/30 11:06:26;;;;;;;;;;;;;;;11.57;56.53;100670.28;5461510;32;34205;-72
2023/12/30 11:09:29;;;;;;;;;;;;;;;11.57;56.91;100664.19;5447300;32;34781;-72
2023/12/30 11:12:31;;;;;;;;;;;;;;;12.01;55.57;100661.59;5438278;32;34948;-70
2023/12/30 11:15:33;;;;;;;;;;;;;;;12.24;55.42;100660.66;5461734;32;34820;-70
2023/12/30 11:18:48;;;;;;;;;;;;;;;12.60;53.17;100653.81;5466127;32;34841;-70
2023/12/30 11:21:50;;;;;;;;;;;;;;;11.87;55.18;100663.00;5451879;32;35834;-72
2023/12/30 11:24:53;;;;;;;;;;;;;;;11.54;56.94;100664.31;5451059;32;35813;-70
2023/12/30 11:27:58;;;;;;;;;;;;;;;11.89;56.01;100649.78;5447024;32;34376;-72
2023/12/30 11:31:00;;;;;;;;;;;;;;;12.05;55.27;100647.37;5458364;32;36251;-72
2023/12/30 11:34:04;;;;;;;;;;;;;;;12.15;55.22;100646.06;5438872;32;34609;-70
2023/12/30 11:37:06;;;;;;;;;;;;;;;11.83;56.24;100640.34;5436608;32;35298;-73
2023/12/30 11:40:09;;;;;;;;;;;;;;;11.90;56.39;100635.69;5456860;32;35311;-70
2023/12/30 11:43:11;;;;;;;;;;;;;;;12.20;55.93;100630.94;5460742;32;34670;-73
2023/12/30 11:46:14;;;;;;;;;;;;;;;13.05;53.07;100622.84;5464429;32;34884;-74
2023/12/30 11:49:23;;;;;;;;;;;;;;;13.26;52.19;100627.16;5463167;32;36609;-73
2023/12/30 11:52:25;;;;;;;;;;;;;;;13.49;51.71;100623.44;5458724;32;35439;-71
2023/12/30 11:55:28;;;;;;;;;;;;;;;13.88;50.95;100612.75;5449512;32;35072;-72
2023/12/30 11:58:30;;;;;;;;;;;;;;;14.28;49.60;100608.94;5461243;32;35030;-71
2023/12/30 12:01:32;;;;;;;;;;;;;;;14.49;47.95;100609.69;5466226;32;34641;-75
2023/12/30 12:04:35;;;;;;;;;;;;;;;14.98;47.26;100606.25;5446757;32;34447;-70
2023/12/30 12:07:38;;;;;;;;;;;;;;;14.86;46.82;100611.25;5462656;32;32531;-73
2023/12/30 12:10:40;;;;;;;;;;;;;;;15.49;46.23;100605.16;5463198;32;35319;-71
2023/12/30 12:13:42;;;;;;;;;;;;;;;16.57;42.60;100600.66;5446541;32;34937;-72
2023/12/30 12:16:45;;;;;;;;;;;;;;;15.99;43.71;100609.41;5450437;32;34852;-71
2023/12/30 12:19:47;;;;;;;;;;;;;;;15.34;45.38;100611.34;5447275;32;34963;-71
2023/12/30 12:22:53;;;;;;;;;;;;;;;15.33;45.38;100614.94;5464761;32;35566;-74
2023/12/30 12:25:57;;;;;;;;;;;;;;;14.74;46.85;100611.03;5446535;32;34736;-74
2023/12/30 12:28:59;;;;;;;;;;;;;;;14.64;47.30;100610.69;5461438;32;34242;-70
2023/12/30 12:32:03;;;;;;;;;;;;;;;14.41;47.95;100608.31;5464754;32;35595;-74
2023/12/30 12:35:05;;;;;;;;;;;;;;;14.47;47.92;100602.75;5454010;32;34951;-71
2023/12/30 12:38:08;;;;;;;;;;;;;;;14.38;48.66;100604.06;5466595;32;34983;-70
2023/12/30 12:41:10;;;;;;;;;;;;;;;14.38;48.51;100598.78;5461387;32;35013;-73
2023/12/30 12:44:12;;;;;;;;;;;;;;;15.23;47.36;100603.97;5465105;32;34263;-72
2023/12/30 12:47:14;;;;;;;;;;;;;;;17.22;43.13;100600.22;5460903;32;34749;-72
2023/12/30 12:50:16;;;;;;;;;;;;;;;17.71;40.89;100599.69;5459603;32;34970;-75
2023/12/30 12:53:19;;;;;;;;;;;;;;;17.33;42.04;100598.59;5462526;32;35378;-75
2023/12/30 12:56:21;;;;;;;;;;;;;;;19.13;38.30;100598.03;5443710;32;34730;-73
2023/12/30 12:59:23;;;;;;;;;;;;;;;20.78;34.46;100575.84;5465090;32;35805;-74
2023/12/30 13:02:27;;;;;;;;;;;;;;;21.01;34.06;100587.38;5446395;32;34462;-73
2023/12/30 13:05:29;;;;;;;;;;;;;;;20.42;34.82;100586.69;5465240;32;35610;-74
2023/12/30 13:08:32;;;;;;;;;;;;;;;19.02;37.07;100597.94;5445939;32;34317;-71
2023/12/30 13:11:44;;;;;;;;;;;;;;;17.74;39.23;100595.09;5460216;32;34998;-70
2023/12/30 13:14:47;;;;;;;;;;;;;;;16.76;41.41;100609.25;5465399;32;34534;-73
2023/12/30 13:17:49;;;;;;;;;;;;;;;16.60;41.57;100605.78;5459410;32;34942;-70
2023/12/30 13:20:52;;;;;;;;;;;;;;;16.40;42.27;100603.47;5447395;32;35949;-73
2023/12/30 13:23:54;;;;;;;;;;;;;;;16.51;41.64;100606.34;5460214;32;35301;-73
2023/12/30 13:26:56;;;;;;;;;;;;;;;16.23;42.38;100601.84;5463630;32;35304;-73
2023/12/30 13:29:58;;;;;;;;;;;;;;;15.62;43.76;100600.06;5441718;32;35189;-74
2023/12/30 13:33:04;;;;;;;;;;;;;;;15.66;43.83;100610.41;5443306;32;35136;-74
2023/12/30 13:36:11;;;;;;;;;;;;;;;15.83;43.60;100601.47;5465383;32;34897;-72
2023/12/30 13:39:13;;;;;;;;;;;;;;;16.02;43.16;100600.44;5442738;32;34788;-71
2023/12/30 13:42:17;;;;;;;;;;;;;;;15.45;44.81;100614.22;5465261;32;34338;-74
2023/12/30 13:45:19;;;;;;;;;;;;;;;15.23;45.50;100613.72;5460585;32;34450;-70
2023/12/30 13:51:44;;;;;;;;;;;;;;;14.71;47.14;100621.78;5462807;32;34381;-71
2023/12/30 13:54:46;;;;;;;;;;;;;;;14.49;47.72;100617.63;5458247;32;34505;-71
2023/12/30 13:57:52;;;;;;;;;;;;;;;14.38;47.96;100630.50;5468144;32;34837;-70
2023/12/30 14:00:55;;;;;;;;;;;;;;;14.08;48.78;100631.09;5460679;32;35447;-73
2023/12/30 14:03:58;;;;;;;;;;;;;;;13.82;49.60;100632.38;5463657;32;35456;-71
2023/12/30 14:07:04;;;;;;;;;;;;;;;14.31;49.03;100632.59;5461417;32;35694;-70
2023/12/30 14:10:09;;;;;;;;;;;;;;;14.17;49.19;100642.12;5439203;32;34979;-71
2023/12/30 14:13:11;;;;;;;;;;;;;;;14.42;48.52;100642.62;5463456;32;34768;-70
2023/12/30 14:16:13;;;;;;;;;;;;;;;14.45;47.85;100639.84;5459987;32;34616;-72
2023/12/30 14:19:16;;;;;;;;;;;;;;;14.52;47.89;100643.91;5464472;32;34782;-71
2023/12/30 14:22:18;;;;;;;;;;;;;;;14.45;47.96;100636.34;5439400;32;35509;-70
2023/12/30 14:25:20;;;;;;;;;;;;;;;14.28;48.37;100635.38;5444586;32;34420;-72
2023/12/30 14:28:23;;;;;;;;;;;;;;;14.25;48.37;100638.19;5442759;32;35664;-74
2023/12/30 14:31:25;;;;;;;;;;;;;;;14.24;48.23;100639.12;5458823;32;34944;-72
2023/12/30 14:34:27;;;;;;;;;;;;;;;14.37;48.63;100639.38;5465206;32;34415;-73
2023/12/30 14:37:29;;;;;;;;;;;;;;;14.27;48.62;100640.75;5467252;32;35399;-73
2023/12/30 14:40:32;;;;;;;;;;;;;;;14.44;48.11;100637.28;5448840;32;35205;-70
2023/12/30 14:43:34;;;;;;;;;;;;;;;14.28;48.60;100634.53;5461936;32;34325;-69
2023/12/30 14:46:36;;;;;;;;;;;;;;;13.96;49.44;100637.00;5462775;32;34725;-73
2023/12/30 14:49:39;;;;;;;;;;;;;;;13.66;50.38;100638.50;5449196;32;34619;-71
2023/12/30 14:52:41;;;;;;;;;;;;;;;13.50;51.25;100656.84;5437302;32;34950;-73
2023/12/30 14:55:44;;;;;;;;;;;;;;;13.32;52.12;100663.81;5441082;32;34821;-73
2023/12/30 14:58:46;;;;;;;;;;;;;;;12.93;53.18;100656.75;5461700;32;35094;-70
2023/12/30 15:01:48;;;;;;;;;;;;;;;12.87;53.89;100661.44;5451675;32;34792;-71
2023/12/30 15:04:53;;;;;;;;;;;;;;;12.92;53.81;100665.59;5447511;32;34867;-71
2023/12/30 15:07:55;;;;;;;;;;;;;;;12.90;54.12;100662.19;5462364;32;34625;-72
2023/12/30 15:10:59;;;;;;;;;;;;;;;12.68;54.84;100661.38;5465367;32;34786;-72
2023/12/30 15:14:04;;;;;;;;;;;;;;;11.79;57.63;100680.00;5446552;32;34229;-72
2023/12/30 15:17:06;;;;;;;;;;;;;;;12.36;56.35;100673.31;5466093;32;35553;-73
2023/12/30 15:20:08;;;;;;;;;;;;;;;12.34;56.47;100678.66;5461200;32;34901;-71
2023/12/30 15:23:11;;;;;;;;;;;;;;;12.07;57.15;100679.78;5434150;32;34520;-70
2023/12/30 15:26:13;;;;;;;;;;;;;;;11.72;58.42;100678.50;5461411;32;34953;-71
2023/12/30 15:29:16;;;;;;;;;;;;;;;12.02;58.15;100687.00;5460210;32;34358;-69
2023/12/30 15:32:18;;;;;;;;;;;;;;;11.80;59.05;100687.00;5449525;32;34532;-70
2023/12/30 15:35:31;;;;;;;;;;;;;;;11.68;59.26;100696.22;5446779;32;35120;-75
2023/12/30 15:38:34;;;;;;;;;;;;;;;11.54;59.43;100701.16;5471414;32;34485;-71
2023/12/30 15:41:37;;;;;;;;;;;;;;;12.00;58.59;100689.72;5445323;32;34853;-71
2023/12/30 15:44:39;;;;;;;;;;;;;;;11.63;59.67;100700.78;5450808;32;34278;-73
2023/12/30 15:47:43;;;;;;;;;;;;;;;11.84;59.34;100696.50;5462242;32;34896;-73
2023/12/30 15:50:45;;;;;;;;;;;;;;;11.84;59.55;100697.34;5460539;32;35289;-73